Data for 05/03/2006

Time Sea-Level Adjusted Pressure Absolute Pressure Temperature Relative Humidity Dew Point   
(mb) (inHg) (mb) (inHg) (C) (F) (%) (C) (F)
00:05 1022 30.18 851 25.13 2 35.6 52 -6.8 19.7
00:10 1022 30.18 851 25.13 1.7 35.1 54 -6.6 20.1
00:15 1022 30.18 851 25.13 1.9 35.3 55 -6.3 20.6
00:20 1022 30.18 851 25.13 1.9 35.4 57 -5.8 21.6
00:25 1022 30.18 851 25.13 2.1 35.8 59 -5.1 22.9
00:30 1022 30.18 851 25.13 2.1 35.7 61 -4.6 23.8
00:35 1022 30.18 851 25.13 1.9 35.5 63 -4.3 24.3
00:40 1022 30.18 851 25.13 2 35.6 64 -4.1 24.7
00:45 1022 30.18 851 25.13 2 35.7 65 -3.9 25
00:50 1022 30.18 851 25.13 2.1 35.7 65 -3.8 25.1
00:55 1022 30.18 851 25.13 2 35.5 65 -4 24.9
01:00 1022 30.18 851 25.13 2 35.6 65 -4 24.9
01:05 1022 30.18 851 25.13 2 35.5 65 -4 24.9
01:10 1022 30.18 851 25.13 1.8 35.3 66 -3.8 25.2
01:15 1022 30.18 851 25.13 2 35.5 67 -3.5 25.7
01:20 1022 30.18 851 25.13 2 35.7 67 -3.5 25.7
01:25 1022 30.18 851 25.13 2 35.5 67 -3.4 25.8
01:30 1022 30.18 851 25.13 1.9 35.4 68 -3.4 25.9
01:35 1022 30.18 851 25.13 1.7 35.1 68 -3.5 25.7
01:40 1022 30.18 851 25.13 1.5 34.7 69 -3.6 25.6
01:45 1022 30.18 851 25.13 1.6 34.8 69 -3.6 25.5
01:50 1022 30.18 851 25.13 1.5 34.7 69 -3.5 25.6
01:55 1022 30.18 851 25.13 1.6 34.8 68 -3.7 25.4
02:00 1022 30.18 851 25.13 1.5 34.6 68 -3.9 25.1
02:05 1022 30.18 851 25.13 1.5 34.6 68 -3.8 25.1
02:10 1022 30.18 851 25.13 1.5 34.8 68 -3.8 25.2
02:15 1022 30.18 851 25.13 1.6 34.8 67 -3.8 25.1
02:20 1022 30.18 851 25.13 1.5 34.7 69 -3.6 25.5
02:25 1022 30.18 851 25.13 1.5 34.7 68 -3.7 25.4
02:30 1022 30.18 851 25.13 1.5 34.7 68 -3.7 25.3
02:35 1022 30.18 851 25.13 1.4 34.4 69 -3.7 25.3
02:40 1022 30.18 851 25.13 1.4 34.4 69 -3.7 25.3
02:45 1022 30.18 851 25.13 1.2 34.1 69 -3.8 25.1
02:50 1022 30.18 851 25.13 1.1 33.9 69 -4 24.8
02:55 1022 30.18 852 25.16 1.1 33.9 68 -4.3 24.3
03:00 1022 30.18 852 25.16 0.8 33.4 67 -4.6 23.8
03:05 1022 30.18 852 25.16 0.8 33.4 67 -4.7 23.6
03:10 1022 30.18 852 25.16 0.9 33.5 67 -4.7 23.6
03:15 1022 30.18 852 25.16 0.8 33.5 66 -4.9 23.2
03:20 1022 30.18 852 25.16 0.8 33.5 66 -4.7 23.5
03:25 1022 30.18 852 25.16 0.7 33.2 67 -4.7 23.5
03:30 1022 30.18 852 25.16 0.6 33.1 68 -4.6 23.7
03:35 1023 30.21 852 25.16 0.6 33.1 66 -4.9 23.1
03:40 1023 30.21 852 25.16 0.7 33.2 66 -5 23
03:45 1023 30.21 852 25.16 0.9 33.6 65 -5 23.1
03:50 1023 30.21 852 25.16 0.5 32.8 67 -5 23.1
03:55 1023 30.21 852 25.16 0.3 32.5 67 -5.1 22.9
04:00 1023 30.21 852 25.16 0.8 33.4 65 -5.1 22.8
04:05 1023 30.21 852 25.16 0.8 33.4 67 -4.7 23.5
04:10 1023 30.21 852 25.16 0.8 33.4 65 -5 23.1
04:15 1023 30.21 852 25.16 0.6 33.1 65 -5.2 22.7
04:20 1023 30.21 852 25.16 0.5 32.8 67 -5 23
04:25 1023 30.21 852 25.16 0.4 32.7 67 -5 23
04:30 1023 30.21 852 25.16 0.6 33.1 67 -4.8 23.3
04:35 1023 30.21 852 25.16 0.6 33 67 -4.9 23.2
04:40 1023 30.21 852 25.16 0.6 33 66 -5.1 22.8
04:45 1023 30.21 852 25.16 0.1 32.3 67 -5.2 22.6
04:50 1023 30.21 852 25.16 0.2 32.3 68 -5 23
04:55 1023 30.21 852 25.16 0.5 32.9 66 -5.2 22.6
05:00 1023 30.21 852 25.16 0.3 32.5 67 -5.1 22.9
05:05 1023 30.21 852 25.16 0.1 32.2 67 -5.2 22.6
05:10 1023 30.21 852 25.16 -0.3 31.5 70 -5.1 22.8
05:15 1023 30.21 852 25.16 -0.1 31.9 68 -5.3 22.5
05:20 1023 30.21 852 25.16 -0.1 31.8 70 -5 23.1
05:25 1023 30.21 852 25.16 -0.2 31.7 68 -5.5 22.2
05:30 1023 30.21 852 25.16 -0.2 31.6 69 -5.2 22.7
05:35 1023 30.21 852 25.16 -0.6 30.9 70 -5.5 22.2
05:40 1023 30.21 852 25.16 -0.8 30.6 70 -5.7 21.8
05:45 1023 30.21 852 25.16 -0.6 30.9 69 -5.6 21.9
05:50 1023 30.21 852 25.16 -0.6 31 69 -5.6 22
05:55 1023 30.21 853 25.19 -0.7 30.7 70 -5.6 22
06:00 1023 30.21 853 25.19 -0.9 30.3 72 -5.3 22.4
06:05 1023 30.21 853 25.19 -1 30.3 72 -5.4 22.3
06:10 1023 30.21 853 25.19 -1 30.2 73 -5.2 22.6
06:15 1023 30.21 853 25.19 -0.8 30.5 73 -5.1 22.8
06:20 1023 30.21 853 25.19 -0.6 30.9 73 -4.9 23.2
06:25 1023 30.21 853 25.19 -0.3 31.5 70 -5 22.9
06:30 1023 30.21 853 25.19 -0.4 31.2 72 -4.9 23.2
06:35 1023 30.21 853 25.19 -0.6 30.9 73 -4.9 23.1
06:40 1023 30.21 853 25.19 -0.7 30.8 73 -4.9 23.2
06:45 1023 30.21 853 25.19 -0.3 31.5 73 -4.6 23.7
06:50 1023 30.21 853 25.19 -0.1 31.9 73 -4.4 24.1
06:55 1024 30.24 853 25.19 0.2 32.4 71 -4.5 23.9
07:00 1024 30.24 853 25.19 0.2 32.3 73 -4.1 24.5
07:05 1024 30.24 853 25.19 0.2 32.3 73 -4.1 24.7
07:10 1024 30.24 853 25.19 0.2 32.3 73 -4.1 24.7
07:15 1024 30.24 853 25.19 0.4 32.8 72 -4 24.7
07:20 1024 30.24 853 25.19 0.6 33.1 72 -3.8 25.1
07:25 1024 30.24 853 25.19 0.8 33.4 72 -3.7 25.3
07:30 1024 30.24 853 25.19 0.8 33.4 73 -3.5 25.7
07:35 1024 30.24 853 25.19 0.9 33.6 72 -3.6 25.5
07:40 1024 30.24 853 25.19 1 33.8 71 -3.7 25.3
07:45 1024 30.24 853 25.19 1.2 34.1 71 -3.6 25.6
07:50 1024 30.24 853 25.19 1.3 34.3 71 -3.4 25.8
07:55 1024 30.24 853 25.19 1.5 34.8 70 -3.4 25.8
08:00 1024 30.24 853 25.19 1.8 35.2 69 -3.3 26
08:05 1024 30.24 853 25.19 1.9 35.4 67 -3.6 25.6
08:10 1024 30.24 853 25.19 1.8 35.3 68 -3.4 25.9
08:15 1024 30.24 853 25.19 2.1 35.8 67 -3.4 25.9
08:20 1024 30.24 853 25.19 2.6 36.7 65 -3.4 25.9
08:25 1024 30.24 853 25.19 2.8 37.1 64 -3.3 26.1
08:30 1024 30.24 853 25.19 2.8 37 64 -3.5 25.8
08:35 1024 30.24 853 25.19 2.8 37.1 64 -3.4 25.9
08:40 1024 30.24 853 25.19 3.1 37.7 62 -3.3 26
08:45 1024 30.24 853 25.19 3.2 37.8 62 -3.5 25.8
08:50 1024 30.24 853 25.19 3.1 37.6 62 -3.5 25.7
08:55 1024 30.24 853 25.19 3.1 37.5 63 -3.4 25.9
09:00 1024 30.24 853 25.19 3.1 37.7 63 -3.2 26.3
09:05 1024 30.24 853 25.19 3.3 37.9 63 -3.2 26.3
09:10 1024 30.24 853 25.19 3.3 38 62 -3.3 26.1
09:15 1024 30.24 853 25.19 3.2 37.8 63 -3.1 26.5
09:20 1024 30.24 853 25.19 3.2 37.7 64 -3 26.5
09:25 1024 30.24 853 25.19 3.2 37.7 63 -3.2 26.2
09:30 1024 30.24 853 25.19 3.2 37.8 64 -2.9 26.8
09:35 1024 30.24 853 25.19 3.5 38.3 63 -3 26.7
09:40 1024 30.24 853 25.19 3.5 38.2 62 -3.2 26.2
09:45 1024 30.24 853 25.19 3.7 38.6 62 -3 26.6
09:50 1024 30.24 853 25.19 3.4 38.1 61 -3.5 25.7
09:55 1024 30.24 853 25.19 3.9 39 59 -3.3 26
10:00 1024 30.24 853 25.19 4.4 40 56 -3.6 25.6
10:05 1024 30.24 853 25.19 4.7 40.5 55 -3.6 25.5
10:10 1024 30.24 853 25.19 4.9 40.9 53 -3.8 25.2
10:15 1024 30.24 853 25.19 5.2 41.4 53 -3.6 25.6
10:20 1024 30.24 853 25.19 5.5 41.9 53 -3.4 25.9
10:25 1024 30.24 853 25.19 5.7 42.3 48 -4.3 24.2
10:30 1024 30.24 853 25.19 5.9 42.6 48 -4.4 24
10:35 1024 30.24 853 25.19 6.1 43 47 -4.2 24.4
10:40 1024 30.24 853 25.19 6.3 43.4 47 -4.2 24.5
10:45 1024 30.24 853 25.19 6.3 43.3 46 -4.4 24.1
10:50 1024 30.24 853 25.19 6.2 43.2 46 -4.6 23.7
10:55 1024 30.24 853 25.19 5.7 42.3 49 -4.2 24.4
11:00 1024 30.24 853 25.19 6 42.8 48 -4.3 24.2
11:05 1024 30.24 853 25.19 6.4 43.5 44 -5.1 22.8
11:10 1024 30.24 853 25.19 6.6 43.8 46 -4.2 24.4
11:15 1024 30.24 853 25.19 6.2 43.1 44 -5.1 22.9
11:20 1024 30.24 853 25.19 6.7 44.1 44 -4.7 23.6
11:25 1024 30.24 853 25.19 6.3 43.3 47 -4.2 24.4
11:30 1024 30.24 853 25.19 6.6 43.8 42 -5.5 22.1
11:35 1024 30.24 853 25.19 6.9 44.5 42 -5 23
11:40 1024 30.24 853 25.19 6.6 43.9 43 -5.1 22.7
11:45 1024 30.24 853 25.19 7.3 45.1 39 -5.9 21.4
11:50 1024 30.24 853 25.19 7.6 45.8 37 -6 21.2
11:55 1024 30.24 853 25.19 7.7 45.8 36 -6.4 20.5
12:00 1024 30.24 853 25.19 8 46.4 35 -6.4 20.5
12:05 1023 30.21 853 25.19 7.2 45 41 -5.3 22.5
12:10 1023 30.21 853 25.19 7 44.6 38 -6.2 20.8
12:15 1023 30.21 853 25.19 7.6 45.6 40 -5.2 22.7
12:20 1023 30.21 853 25.19 7 44.5 40 -5.6 21.9
12:25 1023 30.21 853 25.19 6.8 44.3 40 -5.8 21.5
12:30 1023 30.21 852 25.16 7 44.7 39 -5.9 21.3
12:35 1023 30.21 852 25.16 6.7 44.1 40 -5.8 21.6
12:40 1023 30.21 852 25.16 6.5 43.7 39 -6.5 20.3
12:45 1023 30.21 852 25.16 6.5 43.6 41 -6 21.3
12:50 1023 30.21 852 25.16 6.1 42.9 40 -6.4 20.5
12:55 1023 30.21 852 25.16 7.1 44.8 39 -6 21.2
13:00 1023 30.21 852 25.16 6.8 44.2 39 -6.1 21
13:05 1023 30.21 852 25.16 7.3 45.1 38 -5.9 21.3
13:10 1023 30.21 852 25.16 8.6 47.5 33 -6.8 19.7
13:15 1023 30.21 852 25.16 8.9 48.1 33 -6.4 20.5
13:20 1023 30.21 852 25.16 8.4 47.1 34 -6.6 20.2
13:25 1023 30.21 852 25.16 7.8 46.1 34 -6.9 19.6
13:30 1023 30.21 852 25.16 7.8 46.1 35 -6.9 19.7
13:35 1023 30.21 852 25.16 7.8 46.1 34 -7.1 19.2
13:40 1023 30.21 852 25.16 8.7 47.6 32 -7.1 19.2
13:45 1023 30.21 852 25.16 8.7 47.6 32 -7 19.4
13:50 1023 30.21 852 25.16 7.7 45.8 34 -7.2 19
13:55 1023 30.21 852 25.16 7.9 46.2 34 -7.2 19.1
14:00 1023 30.21 852 25.16 7.9 46.2 34 -7.2 19.1
14:05 1023 30.21 852 25.16 7.9 46.2 33 -7.5 18.5
14:10 1023 30.21 852 25.16 7.6 45.6 34 -7.5 18.5
14:15 1023 30.21 852 25.16 8.1 46.5 32 -7.7 18.2
14:20 1023 30.21 852 25.16 9.6 49.3 30 -7 19.3
14:25 1023 30.21 852 25.16 9.8 49.6 32 -6.2 20.9
14:30 1023 30.21 852 25.16 9.3 48.7 31 -7 19.3
14:35 1023 30.21 852 25.16 9.7 49.5 30 -7 19.3
14:40 1023 30.21 852 25.16 10.4 50.8 29 -6.6 20.1
14:45 1023 30.21 852 25.16 9.9 49.8 30 -6.8 19.7
14:50 1023 30.21 852 25.16 9.8 49.6 31 -6.6 20.2
14:55 1023 30.21 852 25.16 9.9 49.7 30 -6.7 20
15:00 1023 30.21 852 25.16 9.5 49.1 31 -6.9 19.5
15:05 1023 30.21 852 25.16 9.9 49.8 28 -7.6 18.4
15:10 1023 30.21 852 25.16 9.6 49.2 29 -7.4 18.6
15:15 1023 30.21 852 25.16 8.6 47.4 33 -6.8 19.7
15:20 1023 30.21 852 25.16 7.7 45.8 33 -7.5 18.5
15:25 1023 30.21 852 25.16 7.6 45.7 33 -7.7 18.1
15:30 1023 30.21 852 25.16 7.9 46.3 34 -7.1 19.2
15:35 1023 30.21 852 25.16 7.6 45.7 33 -7.5 18.5
15:40 1023 30.21 852 25.16 7.3 45.1 34 -7.4 18.7
15:45 1023 30.21 852 25.16 7.3 45.1 34 -7.7 18.2
15:50 1023 30.21 852 25.16 7.2 44.9 34 -7.6 18.3
15:55 1022 30.18 852 25.16 7.1 44.8 33 -7.9 17.7
16:00 1022 30.18 852 25.16 7.4 45.4 33 -7.7 18.2
16:05 1022 30.18 852 25.16 7.5 45.5 34 -7.4 18.6
16:10 1022 30.18 852 25.16 7.1 44.8 35 -7.4 18.7
16:15 1022 30.18 852 25.16 7 44.7 35 -7.4 18.6
16:20 1022 30.18 852 25.16 7.1 44.8 35 -7.5 18.5
16:25 1022 30.18 852 25.16 7.1 44.7 35 -7.4 18.7
16:30 1022 30.18 852 25.16 7.2 44.9 33 -8.1 17.5
16:35 1022 30.18 852 25.16 7.6 45.6 33 -7.6 18.3
16:40 1022 30.18 851 25.13 7.3 45.2 34 -7.5 18.5
16:45 1022 30.18 851 25.13 7.5 45.5 34 -7.5 18.5
16:50 1022 30.18 851 25.13 7.9 46.2 33 -7.5 18.5
16:55 1022 30.18 851 25.13 7.4 45.3 34 -7.5 18.5
17:00 1022 30.18 851 25.13 7.1 44.9 34 -7.6 18.4
17:05 1022 30.18 851 25.13 7.6 45.7 34 -7.4 18.7
17:10 1022 30.18 851 25.13 8.3 46.9 32 -7.4 18.7
17:15 1022 30.18 851 25.13 8.3 47 32 -7.2 19
17:20 1022 30.18 851 25.13 8.3 46.9 32 -7.5 18.6
17:25 1022 30.18 851 25.13 8.1 46.6 32 -7.6 18.3
17:30 1022 30.18 851 25.13 8.3 47 31 -7.7 18.2
17:35 1022 30.18 851 25.13 7.7 45.9 33 -7.7 18.2
17:40 1022 30.18 851 25.13 8.2 46.7 32 -7.7 18.2
17:45 1022 30.18 851 25.13 8.2 46.8 32 -7.5 18.5
17:50 1022 30.18 851 25.13 7.9 46.2 33 -7.4 18.6
17:55 1022 30.18 851 25.13 7.7 45.9 32 -8 17.6
18:00 1022 30.18 851 25.13 7.7 45.8 33 -7.6 18.4
18:05 1022 30.18 851 25.13 7.9 46.3 33 -7.4 18.7
18:10 1022 30.18 851 25.13 8.1 46.6 31 -7.8 17.9
18:15 1022 30.18 851 25.13 8.2 46.7 32 -7.7 18.1
18:20 1022 30.18 851 25.13 8.2 46.8 32 -7.7 18.2
18:25 1022 30.18 851 25.13 8.2 46.8 31 -7.9 17.8
18:30 1022 30.18 851 25.13 7.9 46.3 32 -7.7 18.1
18:35 1022 30.18 851 25.13 7.9 46.2 33 -7.6 18.3
18:40 1022 30.18 851 25.13 7.8 46.1 33 -7.6 18.4
18:45 1022 30.18 851 25.13 7.9 46.2 31 -8 17.5
18:50 1022 30.18 851 25.13 7.9 46.2 32 -7.8 17.9
18:55 1022 30.18 851 25.13 7.8 46 33 -7.6 18.3
19:00 1022 30.18 851 25.13 7.8 46 32 -7.8 17.9
19:05 1022 30.18 851 25.13 7.9 46.2 33 -7.5 18.5
19:10 1022 30.18 852 25.16 8 46.4 32 -7.5 18.5
19:15 1022 30.18 852 25.16 7.9 46.2 32 -7.6 18.2
19:20 1022 30.18 852 25.16 7.8 46.1 33 -7.5 18.5
19:25 1022 30.18 852 25.16 7.7 45.9 33 -7.5 18.5
19:30 1022 30.18 852 25.16 7.7 45.8 34 -7.1 19.2
19:35 1022 30.18 852 25.16 7.3 45.1 36 -6.8 19.8
19:40 1022 30.18 852 25.16 7.1 44.8 38 -6.1 21
19:45 1022 30.18 852 25.16 6.8 44.3 39 -6 21.1
19:50 1022 30.18 852 25.16 6.8 44.2 39 -6.1 21.1
19:55 1022 30.18 852 25.16 6.5 43.7 40 -6.1 21.1
20:00 1023 30.21 852 25.16 6.3 43.3 39 -6.6 20.1
20:05 1023 30.21 852 25.16 6.1 42.9 38 -7.1 19.3
20:10 1023 30.21 852 25.16 5.9 42.7 38 -7.2 19.1
20:15 1023 30.21 852 25.16 5.8 42.5 39 -7.1 19.1
20:20 1023 30.21 852 25.16 5.7 42.2 40 -6.9 19.6
20:25 1023 30.21 852 25.16 5.8 42.5 39 -7 19.4
20:30 1023 30.21 852 25.16 5.8 42.5 40 -6.6 20
20:35 1023 30.21 852 25.16 5.6 42 41 -6.7 20
20:40 1023 30.21 852 25.16 5.4 41.7 42 -6.6 20.2
20:45 1023 30.21 852 25.16 5.3 41.5 42 -6.5 20.3
20:50 1023 30.21 852 25.16 5.3 41.5 43 -6.4 20.5
20:55 1023 30.21 852 25.16 5 40.9 44 -6.4 20.4
21:00 1023 30.21 852 25.16 4.8 40.7 44 -6.3 20.6
21:05 1023 30.21 852 25.16 4.7 40.4 44 -6.6 20.1
21:10 1023 30.21 852 25.16 4.6 40.3 45 -6.4 20.4
21:15 1023 30.21 852 25.16 4.6 40.2 44 -6.5 20.3
21:20 1023 30.21 852 25.16 4.5 40 44 -6.8 19.8
21:25 1023 30.21 852 25.16 4.6 40.2 44 -6.7 20
21:30 1023 30.21 852 25.16 4.7 40.5 43 -6.7 20
21:35 1023 30.21 852 25.16 4.4 39.9 44 -6.7 19.9
21:40 1023 30.21 853 25.19 4.2 39.5 45 -6.6 20
21:45 1023 30.21 853 25.19 4 39.2 46 -6.7 19.9
21:50 1023 30.21 853 25.19 3.8 38.9 47 -6.5 20.2
21:55 1023 30.21 853 25.19 3.5 38.3 48 -6.5 20.4
22:00 1023 30.21 853 25.19 3.3 37.9 49 -6.4 20.4
22:05 1023 30.21 853 25.19 3.1 37.5 49 -6.5 20.3
22:10 1023 30.21 853 25.19 2.9 37.3 49 -6.8 19.7
22:15 1023 30.21 853 25.19 2.9 37.2 49 -6.8 19.8
22:20 1023 30.21 853 25.19 2.8 37.1 49 -6.9 19.5
22:25 1023 30.21 853 25.19 2.8 37 49 -7 19.4
22:30 1024 30.24 853 25.19 2.8 37 49 -6.8 19.8
22:35 1024 30.24 853 25.19 2.7 36.9 49 -7 19.4
22:40 1024 30.24 853 25.19 2.7 36.8 49 -6.9 19.6
22:45 1024 30.24 853 25.19 2.6 36.6 51 -6.6 20.1
22:50 1024 30.24 853 25.19 2.5 36.5 52 -6.5 20.4
22:55 1024 30.24 853 25.19 2.4 36.3 51 -6.7 19.9
23:00 1024 30.24 853 25.19 2.4 36.3 52 -6.6 20.1
23:05 1024 30.24 853 25.19 2.3 36.2 51 -6.7 19.9
23:10 1024 30.24 853 25.19 2.3 36.2 52 -6.6 20.2
23:15 1024 30.24 853 25.19 2.3 36.1 51 -6.7 19.9
23:20 1024 30.24 853 25.19 2.3 36.1 52 -6.6 20.2
23:25 1024 30.24 853 25.19 2.3 36.2 52 -6.6 20.2
23:30 1024 30.24 853 25.19 2.3 36.2 51 -6.8 19.8
23:35 1024 30.24 853 25.19 2.4 36.3 51 -6.7 20
23:40 1024 30.24 853 25.19 2.3 36.2 52 -6.6 20.1
23:45 1024 30.24 853 25.19 2.4 36.2 51 -6.7 20
23:50 1024 30.24 853 25.19 2.3 36.1 52 -6.6 20
23:55 1024 30.24 853 25.19 2.3 36.1 52 -6.6 20.2
24:00 1024 30.24 853 25.19 2.2 36 53 -6.5 20.4